createdAt,value
2023-07-30T00:00:34.560Z,99.90
2023-07-30T00:03:01.453Z,99.90
2023-07-30T00:05:28.280Z,99.90
2023-07-30T00:07:55.854Z,99.90
2023-07-30T00:10:23.068Z,99.90
2023-07-30T00:12:49.829Z,99.90
2023-07-30T00:15:16.668Z,1.00
2023-07-30T00:17:43.557Z,1.00
2023-07-30T00:20:10.398Z,1.00
2023-07-30T00:22:37.183Z,1.00
2023-07-30T00:25:04.680Z,1.00
2023-07-30T00:27:31.508Z,15.60
2023-07-30T00:29:58.309Z,1.00
2023-07-30T00:32:25.146Z,5.80
2023-07-30T00:34:51.965Z,24.60
2023-07-30T00:37:18.906Z,21.40
2023-07-30T00:39:45.724Z,13.50
2023-07-30T00:42:12.434Z,24.10
2023-07-30T00:44:39.230Z,43.30
2023-07-30T00:47:06.702Z,69.70
2023-07-30T00:49:33.365Z,50.10
2023-07-30T00:52:00.174Z,66.70
2023-07-30T00:54:27.225Z,99.90
2023-07-30T00:56:54.134Z,99.90
2023-07-30T00:59:21.750Z,99.90
2023-07-30T01:01:48.674Z,99.90
2023-07-30T01:04:18.617Z,99.90
2023-07-30T01:06:45.640Z,99.90
2023-07-30T01:09:12.487Z,99.90
2023-07-30T01:11:39.960Z,99.90
2023-07-30T01:14:06.969Z,99.90
2023-07-30T01:16:33.724Z,99.90
2023-07-30T01:19:04.984Z,99.90
2023-07-30T01:21:36.082Z,99.90
2023-07-30T01:24:03.632Z,99.90
2023-07-30T01:26:46.213Z,99.90
2023-07-30T01:29:33.106Z,99.90
2023-07-30T01:32:03.032Z,99.90
2023-07-30T01:34:29.739Z,99.90
2023-07-30T01:36:57.722Z,99.90
2023-07-30T01:39:24.635Z,99.90
2023-07-30T01:41:51.416Z,99.90
2023-07-30T01:44:18.195Z,99.90
2023-07-30T01:46:44.911Z,99.90
2023-07-30T01:49:11.698Z,99.90
2023-07-30T01:51:38.799Z,99.90
2023-07-30T01:54:05.728Z,99.90
2023-07-30T01:56:32.422Z,99.90
2023-07-30T01:58:59.102Z,99.90
2023-07-30T02:01:25.808Z,99.90
2023-07-30T02:03:52.538Z,99.90
2023-07-30T02:06:19.400Z,99.90
2023-07-30T02:08:46.121Z,99.90
2023-07-30T02:11:13.531Z,99.90
2023-07-30T02:13:40.282Z,99.90
2023-07-30T02:16:07.098Z,99.90
2023-07-30T02:18:33.938Z,99.90
2023-07-30T02:21:00.699Z,99.90
2023-07-30T02:23:27.793Z,99.90
2023-07-30T02:25:54.510Z,99.40
2023-07-30T02:28:21.381Z,92.00
2023-07-30T02:30:48.292Z,99.60
2023-07-30T02:33:15.018Z,95.20
2023-07-30T02:35:41.741Z,70.80
2023-07-30T02:38:08.440Z,91.60
2023-07-30T02:40:35.227Z,69.00
2023-07-30T02:43:02.021Z,33.80
2023-07-30T02:45:28.966Z,1.00
2023-07-30T02:47:55.700Z,1.00
2023-07-30T02:50:22.464Z,1.00
2023-07-30T02:52:49.211Z,1.00
2023-07-30T02:55:17.240Z,1.00
2023-07-30T02:57:43.944Z,1.00
2023-07-30T03:00:11.959Z,1.00
2023-07-30T03:02:38.775Z,1.00
2023-07-30T03:05:05.849Z,1.00
2023-07-30T03:07:32.572Z,1.00
2023-07-30T03:09:59.342Z,1.00
2023-07-30T03:12:26.042Z,1.00
2023-07-30T03:14:52.849Z,1.00
2023-07-30T03:17:19.678Z,1.00
2023-07-30T03:19:47.578Z,99.90
2023-07-30T03:22:14.368Z,1.00
2023-07-30T03:24:41.060Z,1.00
2023-07-30T03:27:07.883Z,1.00
2023-07-30T03:29:34.613Z,1.00
2023-07-30T03:32:01.407Z,1.00
2023-07-30T03:34:28.214Z,1.00
2023-07-30T03:36:55.071Z,1.00
2023-07-30T03:39:21.771Z,1.00
2023-07-30T03:41:48.533Z,1.00
2023-07-30T03:44:15.250Z,1.00
2023-07-30T03:46:42.016Z,1.00
2023-07-30T03:49:08.780Z,1.00
2023-07-30T03:51:35.809Z,2.10
2023-07-30T03:54:02.828Z,33.20
2023-07-30T03:56:29.644Z,75.60
2023-07-30T03:58:56.412Z,83.70
2023-07-30T04:01:23.183Z,80.20
2023-07-30T04:03:50.078Z,85.20
2023-07-30T04:06:16.935Z,88.30
2023-07-30T04:08:44.612Z,70.40
2023-07-30T04:11:11.572Z,91.30
2023-07-30T04:13:38.283Z,70.20
2023-07-30T04:16:05.573Z,98.70
2023-07-30T04:18:32.728Z,99.90
2023-07-30T04:20:59.884Z,86.50
2023-07-30T04:23:27.052Z,94.90
2023-07-30T04:25:54.033Z,99.90
2023-07-30T04:28:21.275Z,99.90
2023-07-30T04:30:48.477Z,99.90
2023-07-30T04:33:18.871Z,99.90
2023-07-30T04:35:45.619Z,99.90
2023-07-30T04:38:12.757Z,99.90
2023-07-30T04:40:40.081Z,99.90
2023-07-30T04:43:06.850Z,99.90
2023-07-30T04:45:33.564Z,99.90
2023-07-30T04:48:00.418Z,99.90
2023-07-30T04:50:27.257Z,99.90
2023-07-30T04:52:54.124Z,1.00
2023-07-30T04:55:20.940Z,1.00
2023-07-30T04:57:47.664Z,1.00
2023-07-30T05:00:14.480Z,1.00
2023-07-30T05:02:41.280Z,51.90
2023-07-30T05:05:08.280Z,99.90
2023-07-30T05:07:34.966Z,99.90
2023-07-30T05:10:01.704Z,99.90
2023-07-30T05:12:28.443Z,99.90
2023-07-30T05:14:55.129Z,99.90
2023-07-30T05:17:22.301Z,99.90
2023-07-30T05:19:49.215Z,99.90
2023-07-30T05:22:15.921Z,99.90
2023-07-30T05:24:42.693Z,99.90
2023-07-30T05:27:09.420Z,99.90
2023-07-30T05:29:36.167Z,99.90
2023-07-30T05:32:02.936Z,99.90
2023-07-30T05:34:29.714Z,99.90
2023-07-30T05:36:56.504Z,99.90
2023-07-30T05:39:23.245Z,99.90
2023-07-30T05:41:50.013Z,99.90
2023-07-30T05:44:16.777Z,99.90
2023-07-30T05:46:44.014Z,99.90
2023-07-30T05:49:11.914Z,94.70
2023-07-30T05:51:38.937Z,26.70
2023-07-30T05:54:06.361Z,5.20
2023-07-30T05:56:33.233Z,1.00
2023-07-30T05:58:59.994Z,1.00
2023-07-30T06:01:26.959Z,1.00
2023-07-30T06:03:53.759Z,1.00
2023-07-30T06:06:27.914Z,99.90
2023-07-30T06:08:55.402Z,99.90
2023-07-30T06:11:22.340Z,99.90
2023-07-30T06:13:50.296Z,99.90
2023-07-30T06:16:18.044Z,99.90
2023-07-30T06:18:44.821Z,99.90
2023-07-30T06:21:11.520Z,99.90
2023-07-30T06:23:38.871Z,99.90
2023-07-30T06:26:05.631Z,99.90
2023-07-30T06:28:32.615Z,99.90
2023-07-30T06:31:03.431Z,57.50
2023-07-30T06:33:32.774Z,1.00
2023-07-30T06:36:00.253Z,1.00
2023-07-30T06:38:27.032Z,1.00
2023-07-30T06:40:53.773Z,1.00
2023-07-30T06:43:20.614Z,1.00
2023-07-30T06:45:47.322Z,1.00
2023-07-30T06:48:14.622Z,99.90
2023-07-30T06:50:41.310Z,99.90
2023-07-30T06:53:08.028Z,99.90
2023-07-30T06:55:34.730Z,99.90
2023-07-30T06:58:01.465Z,99.90
2023-07-30T07:00:29.578Z,99.90
2023-07-30T07:02:56.504Z,99.90
2023-07-30T07:05:23.422Z,99.90
2023-07-30T07:07:50.189Z,99.90
2023-07-30T07:10:17.079Z,99.90
2023-07-30T07:12:44.073Z,99.90
2023-07-30T07:15:10.797Z,99.90
2023-07-30T07:17:37.679Z,99.90
2023-07-30T07:20:06.275Z,99.90
2023-07-30T07:22:34.174Z,99.90
2023-07-30T07:25:00.940Z,99.90
2023-07-30T07:27:27.737Z,99.90
2023-07-30T07:29:54.556Z,99.90
2023-07-30T07:32:21.403Z,99.90
2023-07-30T07:34:49.200Z,99.90
2023-07-30T07:37:18.044Z,99.90
2023-07-30T07:39:44.759Z,99.90
2023-07-30T07:42:11.505Z,99.90
2023-07-30T07:44:38.484Z,99.90
2023-07-30T07:47:05.263Z,99.90
2023-07-30T07:49:32.000Z,99.90
2023-07-30T07:51:58.784Z,99.90
2023-07-30T07:54:25.500Z,99.90
2023-07-30T07:56:52.196Z,99.90
2023-07-30T07:59:18.930Z,99.90
2023-07-30T08:01:45.692Z,99.90
2023-07-30T08:04:12.491Z,99.90
2023-07-30T08:06:39.264Z,99.90
2023-07-30T08:09:06.268Z,99.90
2023-07-30T08:11:33.011Z,94.50
2023-07-30T08:13:59.693Z,79.20
2023-07-30T08:16:26.528Z,77.60
2023-07-30T08:18:53.402Z,69.60
2023-07-30T08:21:21.408Z,55.20
2023-07-30T08:23:48.319Z,56.80
2023-07-30T08:26:15.075Z,50.70
2023-07-30T08:28:41.809Z,49.10
2023-07-30T08:31:08.662Z,46.30
2023-07-30T08:33:35.393Z,42.50
2023-07-30T08:36:02.223Z,36.60
2023-07-30T08:38:29.234Z,32.40
2023-07-30T08:40:55.985Z,31.20
2023-07-30T08:43:22.782Z,28.10
2023-07-30T08:45:49.494Z,24.00
2023-07-30T08:48:16.365Z,21.00
2023-07-30T08:50:43.339Z,17.60
2023-07-30T08:53:11.298Z,16.80
2023-07-30T08:55:38.135Z,16.30
2023-07-30T08:58:05.686Z,17.10
2023-07-30T09:00:34.180Z,16.40
2023-07-30T09:03:01.414Z,16.00
2023-07-30T09:05:31.052Z,15.90
2023-07-30T09:07:58.274Z,17.10
2023-07-30T09:10:25.226Z,18.40
2023-07-30T09:13:01.786Z,17.10
2023-07-30T09:15:38.592Z,16.30
2023-07-30T09:18:06.958Z,14.00
2023-07-30T09:20:40.825Z,11.80
2023-07-30T09:23:11.576Z,11.10
2023-07-30T09:25:38.660Z,9.70
2023-07-30T09:28:07.055Z,8.60
2023-07-30T09:30:34.721Z,7.90
2023-07-30T09:33:01.618Z,9.90
2023-07-30T09:35:28.385Z,6.90
2023-07-30T09:38:04.282Z,9.60
2023-07-30T09:40:35.743Z,7.30
2023-07-30T09:43:04.039Z,5.80
2023-07-30T09:45:39.211Z,3.20
2023-07-30T09:48:06.752Z,5.30
2023-07-30T09:50:37.612Z,2.80
2023-07-30T09:53:04.786Z,3.50
2023-07-30T09:55:31.560Z,5.30
2023-07-30T09:57:58.332Z,5.30
2023-07-30T10:00:26.509Z,6.40
2023-07-30T10:02:53.272Z,7.20
2023-07-30T10:05:21.158Z,9.50
2023-07-30T10:07:59.227Z,15.50
2023-07-30T10:10:26.176Z,5.10
2023-07-30T10:12:52.908Z,14.60
2023-07-30T10:15:24.574Z,6.50
2023-07-30T10:17:55.093Z,5.50
2023-07-30T10:20:26.998Z,5.50
2023-07-30T10:23:00.878Z,4.80
2023-07-30T10:25:30.497Z,4.60
2023-07-30T10:27:57.559Z,4.90
2023-07-30T10:30:30.797Z,5.10
2023-07-30T10:32:58.783Z,8.20
2023-07-30T10:35:47.280Z,8.70
2023-07-30T10:38:17.603Z,8.50
2023-07-30T10:41:03.460Z,8.30
2023-07-30T10:43:56.619Z,9.40
2023-07-30T10:46:25.824Z,7.90
2023-07-30T10:48:52.887Z,7.70
2023-07-30T10:51:19.960Z,7.60
2023-07-30T10:53:50.187Z,7.70
2023-07-30T10:56:18.190Z,9.50
2023-07-30T10:58:45.045Z,25.00
2023-07-30T11:01:12.006Z,18.70
2023-07-30T11:03:40.016Z,16.10
2023-07-30T11:06:09.005Z,15.10
2023-07-30T11:08:43.146Z,15.60
2023-07-30T11:11:11.024Z,15.60
2023-07-30T11:13:42.652Z,16.20
2023-07-30T11:16:10.233Z,17.10
2023-07-30T11:18:37.869Z,15.30
2023-07-30T11:21:08.703Z,15.90
2023-07-30T11:23:36.384Z,17.10
2023-07-30T11:26:04.130Z,17.10
2023-07-30T11:28:37.383Z,16.80
2023-07-30T11:31:12.693Z,16.80
2023-07-30T11:33:43.981Z,18.30
2023-07-30T11:36:17.925Z,22.30
2023-07-30T11:38:44.750Z,27.70
2023-07-30T11:41:11.660Z,29.70
2023-07-30T11:43:39.383Z,36.10
2023-07-30T11:46:16.323Z,44.80
2023-07-30T11:48:45.380Z,67.90
2023-07-30T11:51:28.972Z,72.60
2023-07-30T11:53:57.388Z,95.40
2023-07-30T11:56:31.113Z,99.90
2023-07-30T11:58:59.510Z,99.90
2023-07-30T12:01:27.839Z,99.90
2023-07-30T12:03:58.684Z,99.90
2023-07-30T12:06:25.965Z,99.90
2023-07-30T12:08:52.935Z,1.00
2023-07-30T12:11:23.105Z,73.70
2023-07-30T12:13:51.642Z,63.80
2023-07-30T12:16:21.562Z,1.00
2023-07-30T12:18:48.941Z,1.00
2023-07-30T12:21:15.889Z,1.00
2023-07-30T12:23:42.693Z,1.00
2023-07-30T12:26:09.409Z,99.90
2023-07-30T12:28:36.245Z,99.90
2023-07-30T12:31:03.298Z,99.90
2023-07-30T12:33:30.062Z,99.90
2023-07-30T12:35:56.935Z,99.90
2023-07-30T12:38:23.817Z,99.90
2023-07-30T12:40:50.549Z,99.90
2023-07-30T12:43:20.100Z,99.90
2023-07-30T12:45:47.987Z,99.90
2023-07-30T12:48:15.238Z,99.90
2023-07-30T12:50:42.032Z,99.90
2023-07-30T12:53:08.869Z,1.00
2023-07-30T12:55:35.755Z,98.20
2023-07-30T12:58:04.431Z,99.90
2023-07-30T13:00:31.149Z,99.90
2023-07-30T13:02:58.511Z,99.90
2023-07-30T13:05:25.533Z,99.90
2023-07-30T13:07:52.300Z,99.90
2023-07-30T13:10:20.323Z,99.90
2023-07-30T13:12:47.143Z,99.90
2023-07-30T13:15:13.917Z,99.90
2023-07-30T13:17:40.735Z,99.90
2023-07-30T13:20:08.250Z,99.90
2023-07-30T13:22:35.159Z,99.90
2023-07-30T13:25:02.061Z,99.90
2023-07-30T13:27:29.974Z,99.90
2023-07-30T13:29:56.931Z,1.00
2023-07-30T13:32:23.727Z,1.00
2023-07-30T13:34:50.703Z,99.90
2023-07-30T13:37:17.469Z,99.90
2023-07-30T13:39:44.182Z,1.00
2023-07-30T13:42:10.972Z,1.00
2023-07-30T13:44:37.914Z,1.00
2023-07-30T13:47:04.993Z,1.00
2023-07-30T13:49:31.777Z,1.00
2023-07-30T13:51:58.565Z,1.00
2023-07-30T13:54:25.283Z,99.90
2023-07-30T13:56:52.040Z,99.90
2023-07-30T13:59:18.769Z,91.30
2023-07-30T14:01:45.563Z,95.40
2023-07-30T14:04:12.437Z,1.00
2023-07-30T14:06:39.296Z,42.80
2023-07-30T14:09:06.147Z,1.00
2023-07-30T14:11:32.991Z,1.00
2023-07-30T14:13:59.796Z,72.80
2023-07-30T14:19:10.470Z,99.90
2023-07-30T14:21:37.513Z,99.90
2023-07-30T14:24:04.657Z,1.00
2023-07-30T14:26:31.453Z,99.90
2023-07-30T14:28:58.151Z,1.00
2023-07-30T14:31:24.940Z,99.90
2023-07-30T14:33:52.069Z,1.00
2023-07-30T14:36:18.845Z,99.90
2023-07-30T14:38:45.569Z,99.90
2023-07-30T14:41:12.371Z,99.90
2023-07-30T14:43:39.214Z,99.90
2023-07-30T14:46:07.073Z,99.90
2023-07-30T14:48:33.882Z,1.00
2023-07-30T14:51:01.071Z,1.00
2023-07-30T14:53:28.550Z,1.00
2023-07-30T14:55:55.341Z,1.00
2023-07-30T14:58:22.028Z,1.00
2023-07-30T15:00:48.823Z,1.00
2023-07-30T15:03:15.589Z,1.00
2023-07-30T15:05:42.462Z,1.00
2023-07-30T15:08:10.780Z,1.00
2023-07-30T15:10:38.452Z,1.00
2023-07-30T15:13:05.289Z,1.00
2023-07-30T15:15:32.240Z,1.00
2023-07-30T15:17:59.078Z,99.90
2023-07-30T15:20:25.944Z,99.90
2023-07-30T15:22:52.691Z,99.90
2023-07-30T15:25:20.743Z,99.90
2023-07-30T15:27:47.434Z,99.90
2023-07-30T15:30:14.377Z,99.90
2023-07-30T15:32:44.849Z,99.90
2023-07-30T15:35:11.848Z,99.90
2023-07-30T15:37:38.996Z,99.90
2023-07-30T15:40:06.979Z,99.90
2023-07-30T15:42:34.080Z,99.90
2023-07-30T15:45:00.894Z,99.90
2023-07-30T15:47:27.709Z,99.90
2023-07-30T15:49:54.538Z,99.90
2023-07-30T15:52:21.266Z,99.90
2023-07-30T15:54:48.477Z,99.90
2023-07-30T15:57:16.076Z,1.00
2023-07-30T15:59:47.257Z,1.00
2023-07-30T16:02:14.128Z,1.00
2023-07-30T16:04:40.990Z,1.00
2023-07-30T16:07:07.843Z,1.00
2023-07-30T16:09:34.660Z,1.00
2023-07-30T16:12:03.080Z,1.00
2023-07-30T16:14:29.903Z,1.00
2023-07-30T16:16:56.667Z,1.00
2023-07-30T16:19:24.086Z,1.00
2023-07-30T16:21:52.753Z,1.00
2023-07-30T16:24:19.651Z,1.00
2023-07-30T16:26:46.524Z,1.00
2023-07-30T16:29:13.222Z,1.00
2023-07-30T16:31:40.026Z,1.00
2023-07-30T16:34:06.798Z,1.00
2023-07-30T16:36:33.580Z,1.00
2023-07-30T16:39:00.303Z,1.00
2023-07-30T16:41:27.248Z,1.00
2023-07-30T16:43:54.542Z,1.00
2023-07-30T16:46:21.366Z,1.00
2023-07-30T16:48:48.726Z,1.00
2023-07-30T16:51:18.469Z,1.00
2023-07-30T16:53:45.587Z,1.00
2023-07-30T16:56:13.180Z,1.00
2023-07-30T16:58:40.522Z,1.00
2023-07-30T17:01:07.837Z,1.00
2023-07-30T17:03:36.216Z,1.00
2023-07-30T17:06:03.110Z,1.00
2023-07-30T17:08:30.575Z,1.00
2023-07-30T17:10:57.419Z,1.00
2023-07-30T17:13:26.595Z,1.00
2023-07-30T17:15:54.601Z,1.00
2023-07-30T17:18:22.349Z,1.00
2023-07-30T17:20:58.746Z,1.00
2023-07-30T17:23:26.049Z,1.00
2023-07-30T17:25:53.885Z,1.00
2023-07-30T17:28:20.841Z,1.00
2023-07-30T17:30:47.705Z,1.00
2023-07-30T17:33:14.730Z,1.00
2023-07-30T17:35:42.059Z,1.00
2023-07-30T17:38:09.381Z,1.00
2023-07-30T17:40:38.696Z,1.00
2023-07-30T17:43:06.095Z,1.00
2023-07-30T17:45:33.301Z,1.00
2023-07-30T17:48:00.174Z,1.00
2023-07-30T17:50:27.285Z,1.00
2023-07-30T17:52:54.032Z,99.90
2023-07-30T17:55:23.055Z,99.90
2023-07-30T17:57:50.305Z,99.90
2023-07-30T18:00:19.939Z,99.90
2023-07-30T18:02:47.915Z,99.90
2023-07-30T18:05:19.212Z,99.90
2023-07-30T18:07:46.353Z,99.90
2023-07-30T18:10:13.219Z,99.90
2023-07-30T18:12:40.866Z,99.90
2023-07-30T18:15:08.082Z,99.90
2023-07-30T18:17:34.916Z,99.90
2023-07-30T18:20:01.788Z,99.90
2023-07-30T18:22:28.572Z,99.90
2023-07-30T18:24:55.396Z,99.90
2023-07-30T18:27:22.221Z,99.90
2023-07-30T18:29:49.457Z,99.90
2023-07-30T18:32:16.215Z,99.90
2023-07-30T18:34:43.094Z,99.90
2023-07-30T18:37:09.830Z,99.90
2023-07-30T18:39:36.648Z,99.90
2023-07-30T18:42:03.629Z,99.90
2023-07-30T18:44:30.648Z,99.90
2023-07-30T18:47:02.014Z,99.90
2023-07-30T18:49:29.083Z,99.90
2023-07-30T18:51:55.912Z,99.90
2023-07-30T18:54:25.442Z,99.90
2023-07-30T18:56:53.466Z,99.90
2023-07-30T18:59:20.178Z,99.90
2023-07-30T19:01:46.911Z,99.90
2023-07-30T19:04:13.905Z,99.90
2023-07-30T19:06:41.080Z,99.90
2023-07-30T19:09:08.007Z,99.90
2023-07-30T19:11:34.933Z,99.90
2023-07-30T19:14:01.717Z,99.90
2023-07-30T19:16:28.525Z,99.90
2023-07-30T19:18:55.385Z,99.90
2023-07-30T19:21:22.159Z,99.90
2023-07-30T19:23:48.978Z,99.90
2023-07-30T19:26:15.851Z,99.90
2023-07-30T19:28:42.672Z,99.90
2023-07-30T19:31:09.691Z,99.90
2023-07-30T19:33:42.184Z,99.90
2023-07-30T19:36:09.909Z,99.90
2023-07-30T19:38:36.671Z,99.90
2023-07-30T19:41:05.312Z,99.90
2023-07-30T19:43:38.875Z,99.90
2023-07-30T19:46:06.306Z,99.90
2023-07-30T19:48:33.519Z,99.90
2023-07-30T19:51:01.185Z,99.90
2023-07-30T19:53:28.431Z,99.90
2023-07-30T19:55:55.494Z,99.90
2023-07-30T19:58:27.726Z,99.90
2023-07-30T20:00:55.637Z,99.90
2023-07-30T20:03:22.511Z,94.70
2023-07-30T20:05:49.273Z,96.80
2023-07-30T20:08:16.207Z,61.90
2023-07-30T20:10:43.132Z,85.90
2023-07-30T20:13:09.913Z,24.40
2023-07-30T20:15:37.151Z,21.90
2023-07-30T20:18:04.705Z,23.20
2023-07-30T20:20:31.658Z,3.20
2023-07-30T20:22:58.477Z,1.00
2023-07-30T20:25:25.542Z,1.00
2023-07-30T20:27:52.645Z,1.00
2023-07-30T20:30:19.613Z,1.00
2023-07-30T20:32:46.641Z,1.00
2023-07-30T20:35:13.445Z,1.00
2023-07-30T20:37:40.285Z,1.00
2023-07-30T20:40:08.553Z,1.00
2023-07-30T20:42:35.555Z,1.00
2023-07-30T20:45:02.542Z,1.00
2023-07-30T20:47:29.759Z,1.00
2023-07-30T20:49:56.649Z,1.00
2023-07-30T20:52:24.483Z,1.00
2023-07-30T20:54:51.300Z,1.00
2023-07-30T20:57:18.249Z,1.00
2023-07-30T20:59:45.042Z,1.00
2023-07-30T21:02:11.958Z,1.00
2023-07-30T21:04:39.097Z,1.00
2023-07-30T21:07:06.157Z,1.00
2023-07-30T21:09:33.186Z,1.00
2023-07-30T21:11:59.957Z,1.00
2023-07-30T21:14:26.630Z,1.00
2023-07-30T21:16:53.312Z,1.00
2023-07-30T21:19:20.065Z,1.00
2023-07-30T21:21:46.826Z,1.00
2023-07-30T21:24:13.550Z,1.00
2023-07-30T21:26:40.644Z,1.00
2023-07-30T21:29:07.643Z,1.00
2023-07-30T21:31:34.973Z,1.00
2023-07-30T21:34:02.413Z,1.00
2023-07-30T21:36:29.132Z,99.90
2023-07-30T21:38:55.828Z,99.90
2023-07-30T21:41:22.517Z,99.90
2023-07-30T21:43:49.251Z,99.90
2023-07-30T21:46:16.000Z,99.90
2023-07-30T21:48:42.793Z,99.90
2023-07-30T21:51:10.416Z,99.90
2023-07-30T21:53:37.100Z,99.90
2023-07-30T21:56:04.979Z,99.90
2023-07-30T21:58:31.823Z,99.90
2023-07-30T22:00:59.001Z,99.90
2023-07-30T22:03:29.437Z,99.90
2023-07-30T22:05:56.444Z,1.00
2023-07-30T22:08:23.456Z,1.00
2023-07-30T22:10:50.243Z,1.00
2023-07-30T22:13:20.832Z,1.00
2023-07-30T22:15:47.785Z,1.00
2023-07-30T22:18:14.965Z,13.10
2023-07-30T22:20:41.769Z,11.10
2023-07-30T22:23:08.596Z,18.70
2023-07-30T22:25:35.334Z,1.00
2023-07-30T22:28:09.265Z,1.00
2023-07-30T22:30:40.403Z,1.00
2023-07-30T22:33:07.176Z,1.00
2023-07-30T22:35:33.927Z,1.00
2023-07-30T22:38:00.686Z,1.00
2023-07-30T22:40:28.213Z,1.00
2023-07-30T22:42:55.080Z,1.00
2023-07-30T22:45:21.981Z,1.00
2023-07-30T22:47:49.309Z,1.00
2023-07-30T22:50:16.169Z,1.00
2023-07-30T22:52:42.928Z,1.00
2023-07-30T22:55:09.808Z,1.00
2023-07-30T22:57:36.535Z,1.00
2023-07-30T23:00:05.621Z,1.00
2023-07-30T23:02:33.071Z,1.00
2023-07-30T23:04:59.921Z,1.00
2023-07-30T23:07:26.652Z,1.00
2023-07-30T23:09:53.439Z,1.00
2023-07-30T23:12:20.194Z,1.00
2023-07-30T23:14:46.992Z,1.00
2023-07-30T23:17:16.337Z,1.00
2023-07-30T23:19:43.231Z,1.00
2023-07-30T23:22:10.045Z,1.00
2023-07-30T23:24:36.734Z,1.00
2023-07-30T23:27:03.616Z,1.00
2023-07-30T23:29:30.298Z,1.00
2023-07-30T23:31:57.159Z,1.00
2023-07-30T23:34:23.927Z,1.00
2023-07-30T23:36:50.639Z,1.00
2023-07-30T23:39:17.373Z,1.00
2023-07-30T23:41:44.128Z,1.00
2023-07-30T23:44:10.856Z,1.00
2023-07-30T23:46:38.092Z,1.00
2023-07-30T23:49:07.000Z,1.00
2023-07-30T23:51:34.095Z,1.00
2023-07-30T23:54:00.797Z,1.00
2023-07-30T23:56:27.520Z,1.00
2023-07-30T23:58:54.255Z,42.10
